Seattle, WA (98168)

12:04 PM PDT on September 04, 2015 (GMT -0700)
Capitol Hill | | Change Station
CLOSE
Current Station
Personal Weather Station
Location: Seattle, WA
Elevation: 367 ft
Nearby Weather Stations

Elev 367 ft 47.62 °N, 122.32 °W | Updated 6 minutes ago

Overcast
Overcast
56.0 °F
Feels Like 56.0 °F
N
6.0
Wind Variable Wind from WNW
Gusts 10.0 mph

Today
High -- | Low -- °F
--% Chance of Precip.
Yesterday
High -- | Low -- °F
Precip. -- in
6:31 AM 7:43 PM
Waning Gibbous, 57% visible
Pressure 30.02 in
Visibility 10.0 miles
Clouds Mostly Cloudy 2100 ft
Overcast 2700 ft
Dew Point 51 °F
Humidity 83%
Rainfall 0.00 in
Snow Depth Not available.
UV 2 out of 12
Pollen 3.00 out of 12
Air Quality Not available.
Flu Activity Not available.
METAR KBFI 041853Z VRB05KT 10SM BKN021 OVC027 14/08 A3002 RMK AO2 SLP165 T01440083
Pressure 30.02 in
Visibility 10.0 miles
Clouds Mostly Cloudy 2100 ft
Overcast 2700 ft
Dew Point 51 °F
Humidity 83%
Rainfall 0.00 in
Snow Depth Not available.
UV 2 out of 12
Pollen 3.00 out of 12
Air Quality Not available.
Flu Activity Not available.
METAR KBFI 041853Z VRB05KT 10SM BKN021 OVC027 14/08 A3002 RMK AO2 SLP165 T01440083

10-Day Weather Forecast

×

Almanac

Astronomy

Sep. 04, 2015 Rise Set
Actual Time
Civil Twilight
Nautical Twilight
Astronomical Twilight
Moon
Length of Visible Light
Length of Day
Tomorrow will be .
, % of the Moon is Illuminated

Today's Extremes

State Highs State Lows

Community

WunderPhotos

Upload Photos

1,852,267 photos uploaded!

WunderBlogs® & News

Nearby

Air Quality

  Air Quality AQ Index Pollutant
Not available.

Snow Depth

Station Depth Elevation

Earthquake Activity

City Distance Mag. Time & Date
Minimum magnitude displayed is 2.5.

Coastal Water Temperatures

Place Temperature

Stations

Nearby Weather Stations

Station Location Temp. Windchill Dew Point Humidity Wind Precip. Elev Updated Type